createdAt,value
2022-09-03T00:00:26.040Z,22.90
2022-09-03T00:03:06.465Z,22.90
2022-09-03T00:05:49.759Z,22.80
2022-09-03T00:08:24.996Z,22.80
2022-09-03T00:10:57.304Z,22.80
2022-09-03T00:13:30.745Z,22.70
2022-09-03T00:15:59.888Z,22.70
2022-09-03T00:18:34.990Z,22.70
2022-09-03T00:21:10.602Z,22.70
2022-09-03T00:23:40.813Z,22.70
2022-09-03T00:26:13.967Z,22.60
2022-09-03T00:29:06.912Z,22.60
2022-09-03T00:31:42.864Z,22.60
2022-09-03T00:34:31.417Z,22.60
2022-09-03T00:36:58.549Z,22.60
2022-09-03T00:39:27.892Z,22.50
2022-09-03T00:41:59.402Z,22.40
2022-09-03T00:44:52.778Z,22.40
2022-09-03T00:47:40.938Z,22.30
2022-09-03T00:50:29.509Z,22.30
2022-09-03T00:53:12.916Z,22.30
2022-09-03T00:55:58.510Z,22.20
2022-09-03T00:58:37.856Z,22.20
2022-09-03T01:01:24.090Z,22.10
2022-09-03T01:04:35.582Z,22.10
2022-09-03T01:07:18.679Z,22.10
2022-09-03T01:09:58.703Z,22.10
2022-09-03T01:12:51.342Z,22.00
2022-09-03T01:15:40.125Z,22.00
2022-09-03T01:18:23.075Z,21.90
2022-09-03T01:20:55.796Z,21.90
2022-09-03T01:24:00.066Z,21.90
2022-09-03T01:26:53.374Z,21.80
2022-09-03T01:29:23.394Z,21.80
2022-09-03T01:32:14.996Z,21.80
2022-09-03T01:34:54.047Z,21.70
2022-09-03T01:38:10.061Z,21.70
2022-09-03T01:41:24.101Z,21.70
2022-09-03T01:44:07.283Z,21.70
2022-09-03T01:46:41.371Z,21.70
2022-09-03T01:49:28.999Z,21.60
2022-09-03T01:52:12.610Z,21.60
2022-09-03T01:54:53.349Z,21.60
2022-09-03T01:57:39.504Z,21.60
2022-09-03T02:00:13.867Z,21.60
2022-09-03T02:02:43.549Z,21.50
2022-09-03T02:05:17.681Z,21.50
2022-09-03T02:08:08.442Z,21.50
2022-09-03T02:10:49.410Z,21.40
2022-09-03T02:13:26.876Z,21.40
2022-09-03T02:16:00.159Z,21.40
2022-09-03T02:18:33.541Z,21.40
2022-09-03T02:21:01.065Z,21.40
2022-09-03T02:23:29.064Z,21.40
2022-09-03T02:25:59.680Z,21.30
2022-09-03T02:28:28.733Z,21.30
2022-09-03T02:30:56.942Z,21.30
2022-09-03T02:33:24.119Z,21.30
2022-09-03T02:35:51.327Z,21.30
2022-09-03T02:38:28.409Z,21.30
2022-09-03T02:40:55.891Z,21.20
2022-09-03T02:43:31.078Z,21.20
2022-09-03T02:46:02.840Z,21.10
2022-09-03T02:48:29.988Z,21.10
2022-09-03T02:50:56.882Z,21.10
2022-09-03T02:53:23.795Z,21.00
2022-09-03T02:55:50.854Z,21.00
2022-09-03T02:58:17.658Z,21.00
2022-09-03T03:00:45.161Z,20.90
2022-09-03T03:03:12.141Z,20.90
2022-09-03T03:05:55.676Z,20.90
2022-09-03T03:08:25.798Z,20.90
2022-09-03T03:10:54.186Z,20.90
2022-09-03T03:13:21.870Z,20.80
2022-09-03T03:15:49.703Z,20.80
2022-09-03T03:18:17.555Z,20.80
2022-09-03T03:20:44.701Z,20.70
2022-09-03T03:23:11.700Z,20.70
2022-09-03T03:25:39.585Z,20.70
2022-09-03T03:28:07.524Z,20.70
2022-09-03T03:30:37.750Z,20.60
2022-09-03T03:33:05.035Z,20.60
2022-09-03T03:35:31.980Z,20.60
2022-09-03T03:37:59.492Z,20.50
2022-09-03T03:40:27.091Z,20.50
2022-09-03T03:42:54.601Z,20.50
2022-09-03T03:45:21.945Z,20.40
2022-09-03T03:47:48.806Z,20.40
2022-09-03T03:50:17.177Z,20.40
2022-09-03T03:52:44.105Z,20.40
2022-09-03T03:55:11.087Z,20.30
2022-09-03T03:57:42.651Z,20.30
2022-09-03T04:00:10.030Z,20.30
2022-09-03T04:02:42.679Z,20.30
2022-09-03T04:05:10.005Z,20.30
2022-09-03T04:07:38.388Z,20.30
2022-09-03T04:10:05.746Z,20.20
2022-09-03T04:12:33.224Z,20.20
2022-09-03T04:15:00.055Z,20.20
2022-09-03T04:17:28.174Z,20.20
2022-09-03T04:19:54.925Z,20.20
2022-09-03T04:22:22.583Z,20.20
2022-09-03T04:24:49.539Z,20.10
2022-09-03T04:27:16.596Z,20.10
2022-09-03T04:29:43.471Z,20.10
2022-09-03T04:32:28.852Z,20.10
2022-09-03T04:34:55.902Z,20.10
2022-09-03T04:37:22.908Z,20.10
2022-09-03T04:39:49.886Z,20.10
2022-09-03T04:42:16.796Z,20.00
2022-09-03T04:44:43.585Z,20.00
2022-09-03T04:47:10.703Z,20.00
2022-09-03T04:49:37.660Z,19.90
2022-09-03T04:52:04.535Z,19.90
2022-09-03T04:54:31.555Z,19.90
2022-09-03T04:56:58.532Z,19.90
2022-09-03T04:59:25.642Z,19.90
2022-09-03T05:01:56.989Z,19.90
2022-09-03T05:04:24.025Z,19.90
2022-09-03T05:06:50.885Z,19.80
2022-09-03T05:09:17.802Z,19.80
2022-09-03T05:11:45.026Z,19.80
2022-09-03T05:14:12.702Z,19.80
2022-09-03T05:16:40.040Z,19.70
2022-09-03T05:19:08.100Z,19.70
2022-09-03T05:21:38.270Z,19.70
2022-09-03T05:24:05.755Z,19.70
2022-09-03T05:26:37.739Z,19.70
2022-09-03T05:29:07.754Z,19.70
2022-09-03T05:31:39.285Z,19.60
2022-09-03T05:34:07.699Z,19.60
2022-09-03T05:36:36.929Z,19.60
2022-09-03T05:39:05.343Z,19.60
2022-09-03T05:41:34.094Z,19.50
2022-09-03T05:44:01.489Z,19.50
2022-09-03T05:46:34.170Z,19.50
2022-09-03T05:49:02.465Z,19.50
2022-09-03T05:51:30.842Z,19.50
2022-09-03T05:53:58.700Z,19.50
2022-09-03T05:56:27.677Z,19.40
2022-09-03T05:58:57.233Z,19.40
2022-09-03T06:01:32.760Z,19.40
2022-09-03T06:04:02.014Z,19.40
2022-09-03T06:06:31.710Z,19.40
2022-09-03T06:09:02.265Z,19.40
2022-09-03T06:11:30.091Z,19.40
2022-09-03T06:13:58.308Z,19.40
2022-09-03T06:16:30.754Z,19.40
2022-09-03T06:19:00.613Z,19.40
2022-09-03T06:21:27.656Z,19.40
2022-09-03T06:23:59.806Z,19.40
2022-09-03T06:26:29.519Z,19.40
2022-09-03T06:28:57.357Z,19.40
2022-09-03T06:31:25.190Z,19.40
2022-09-03T06:33:54.515Z,19.40
2022-09-03T06:36:22.781Z,19.50
2022-09-03T06:38:55.833Z,19.60
2022-09-03T06:41:30.235Z,19.60
2022-09-03T06:44:05.706Z,19.70
2022-09-03T06:46:35.200Z,19.70
2022-09-03T06:49:02.376Z,19.70
2022-09-03T06:51:31.711Z,19.70
2022-09-03T06:54:06.481Z,19.70
2022-09-03T06:56:39.891Z,19.80
2022-09-03T06:59:13.277Z,19.80
2022-09-03T07:01:44.497Z,19.80
2022-09-03T07:04:13.754Z,19.90
2022-09-03T07:06:42.877Z,20.00
2022-09-03T07:09:11.605Z,20.00
2022-09-03T07:11:46.787Z,20.00
2022-09-03T07:14:15.137Z,20.10
2022-09-03T07:16:43.358Z,20.20
2022-09-03T07:19:10.687Z,20.20
2022-09-03T07:21:37.799Z,20.30
2022-09-03T07:24:06.013Z,20.30
2022-09-03T07:26:48.567Z,20.40
2022-09-03T07:29:19.951Z,20.50
2022-09-03T07:31:47.495Z,20.50
2022-09-03T07:34:16.389Z,20.60
2022-09-03T07:36:51.287Z,20.70
2022-09-03T07:39:18.872Z,20.80
2022-09-03T07:41:46.621Z,21.00
2022-09-03T07:44:16.265Z,21.10
2022-09-03T07:46:45.487Z,21.20
2022-09-03T07:49:12.651Z,21.30
2022-09-03T07:51:40.037Z,21.40
2022-09-03T07:54:10.693Z,21.50
2022-09-03T07:56:39.660Z,21.70
2022-09-03T07:59:06.501Z,21.70
2022-09-03T08:01:34.578Z,21.80
2022-09-03T08:04:02.928Z,21.90
2022-09-03T08:06:31.276Z,22.10
2022-09-03T08:09:04.463Z,22.20
2022-09-03T08:11:35.054Z,22.30
2022-09-03T08:14:10.714Z,22.50
2022-09-03T08:16:43.309Z,22.60
2022-09-03T08:19:12.098Z,22.80
2022-09-03T08:21:41.813Z,22.90
2022-09-03T08:24:08.867Z,23.10
2022-09-03T08:26:44.098Z,23.20
2022-09-03T08:29:13.416Z,23.40
2022-09-03T08:31:40.342Z,23.50
2022-09-03T08:34:08.038Z,23.60
2022-09-03T08:36:36.917Z,23.70
2022-09-03T08:39:10.028Z,23.80
2022-09-03T08:42:01.509Z,23.90
2022-09-03T08:44:40.071Z,24.10
2022-09-03T08:47:18.726Z,24.20
2022-09-03T08:49:52.055Z,24.40
2022-09-03T08:52:29.420Z,24.50
2022-09-03T08:55:27.122Z,24.60
2022-09-03T08:58:14.075Z,24.70
2022-09-03T09:01:01.457Z,24.90
2022-09-03T09:03:50.142Z,25.10
2022-09-03T09:06:30.466Z,25.20
2022-09-03T09:09:22.081Z,25.30
2022-09-03T09:12:07.770Z,25.50
2022-09-03T09:14:49.297Z,25.50
2022-09-03T09:17:25.000Z,25.70
2022-09-03T09:20:20.479Z,25.80
2022-09-03T09:22:49.692Z,26.00
2022-09-03T09:25:21.409Z,26.10
2022-09-03T09:28:20.052Z,26.20
2022-09-03T09:30:50.114Z,26.30
2022-09-03T09:33:18.358Z,26.50
2022-09-03T09:35:45.964Z,26.60
2022-09-03T09:38:14.064Z,26.70
2022-09-03T09:40:45.653Z,26.80
2022-09-03T09:43:19.238Z,26.90
2022-09-03T09:45:50.467Z,27.10
2022-09-03T09:48:31.500Z,27.10
2022-09-03T09:51:28.246Z,27.30
2022-09-03T09:54:27.818Z,27.40
2022-09-03T09:57:06.871Z,27.60
2022-09-03T09:59:38.131Z,27.70
2022-09-03T10:02:22.177Z,27.80
2022-09-03T10:04:50.073Z,27.90
2022-09-03T10:07:24.574Z,28.00
2022-09-03T10:10:14.934Z,28.20
2022-09-03T10:12:51.166Z,28.30
2022-09-03T10:15:31.215Z,28.30
2022-09-03T10:18:15.246Z,28.40
2022-09-03T10:20:54.722Z,28.60
2022-09-03T10:23:32.482Z,28.80
2022-09-03T10:26:15.100Z,28.90
2022-09-03T10:28:42.983Z,29.00
2022-09-03T10:31:43.992Z,29.10
2022-09-03T10:34:23.927Z,29.20
2022-09-03T10:37:09.733Z,29.30
2022-09-03T10:40:06.300Z,29.50
2022-09-03T10:42:55.769Z,29.60
2022-09-03T10:45:50.694Z,29.80
2022-09-03T10:48:54.228Z,29.90
2022-09-03T10:51:34.133Z,30.00
2022-09-03T10:54:24.278Z,30.10
2022-09-03T10:57:03.624Z,30.10
2022-09-03T10:59:54.139Z,30.20
2022-09-03T11:02:41.423Z,30.30
2022-09-03T11:05:29.921Z,30.40
2022-09-03T11:08:10.334Z,30.50
2022-09-03T11:10:50.633Z,30.70
2022-09-03T11:14:00.940Z,30.70
2022-09-03T11:16:33.512Z,30.80
2022-09-03T11:19:07.751Z,30.80
2022-09-03T11:21:38.239Z,30.90
2022-09-03T11:24:35.653Z,30.90
2022-09-03T11:27:36.838Z,31.00
2022-09-03T11:30:07.494Z,31.10
2022-09-03T11:32:40.861Z,31.10
2022-09-03T11:35:29.305Z,31.20
2022-09-03T11:38:02.392Z,31.20
2022-09-03T11:40:36.856Z,31.20
2022-09-03T11:43:33.972Z,31.30
2022-09-03T11:46:12.711Z,31.40
2022-09-03T11:48:48.280Z,31.60
2022-09-03T11:51:30.633Z,31.70
2022-09-03T11:54:02.161Z,31.80
2022-09-03T11:56:31.741Z,31.90
2022-09-03T11:59:02.727Z,32.00
2022-09-03T12:01:31.232Z,32.00
2022-09-03T12:04:09.799Z,32.00
2022-09-03T12:06:54.882Z,32.10
2022-09-03T12:09:59.059Z,32.20
2022-09-03T12:12:57.333Z,32.30
2022-09-03T12:15:48.758Z,32.40
2022-09-03T12:18:33.771Z,32.50
2022-09-03T12:21:04.166Z,32.60
2022-09-03T12:23:33.344Z,32.70
2022-09-03T12:26:15.006Z,32.60
2022-09-03T12:28:51.825Z,32.60
2022-09-03T12:31:22.601Z,32.50
2022-09-03T12:33:55.769Z,32.50
2022-09-03T12:36:23.584Z,32.40
2022-09-03T12:39:11.064Z,32.40
2022-09-03T12:41:52.610Z,32.50
2022-09-03T12:44:36.792Z,32.50
2022-09-03T12:47:35.770Z,32.60
2022-09-03T12:50:10.927Z,32.80
2022-09-03T12:53:03.391Z,32.90
2022-09-03T12:55:42.628Z,32.90
2022-09-03T12:58:26.702Z,32.90
2022-09-03T13:01:00.399Z,32.90
2022-09-03T13:03:46.303Z,32.90
2022-09-03T13:06:16.473Z,32.90
2022-09-03T13:08:55.158Z,33.00
2022-09-03T13:11:24.619Z,33.10
2022-09-03T13:14:12.498Z,33.20
2022-09-03T13:17:10.471Z,33.30
2022-09-03T13:20:24.928Z,33.30
2022-09-03T13:23:12.020Z,33.20
2022-09-03T13:25:53.013Z,33.30
2022-09-03T13:28:34.972Z,33.30
2022-09-03T13:31:34.410Z,33.30
2022-09-03T13:34:09.954Z,33.40
2022-09-03T13:36:48.911Z,33.60
2022-09-03T13:39:26.751Z,33.60
2022-09-03T13:42:06.211Z,33.70
2022-09-03T13:44:39.003Z,33.80
2022-09-03T13:47:16.547Z,33.90
2022-09-03T13:50:11.174Z,34.00
2022-09-03T13:53:04.865Z,34.00
2022-09-03T13:55:31.579Z,34.10
2022-09-03T13:58:22.257Z,34.20
2022-09-03T14:01:06.485Z,34.30
2022-09-03T14:03:37.664Z,34.40
2022-09-03T14:06:20.519Z,34.40
2022-09-03T14:08:58.989Z,34.50
2022-09-03T14:11:57.636Z,34.60
2022-09-03T14:14:43.595Z,34.60
2022-09-03T14:17:33.134Z,34.60
2022-09-03T14:20:07.285Z,34.60
2022-09-03T14:22:50.827Z,34.60
2022-09-03T14:25:22.804Z,34.70
2022-09-03T14:27:50.125Z,34.70
2022-09-03T14:30:19.485Z,34.70
2022-09-03T14:33:09.943Z,34.70
2022-09-03T14:35:42.644Z,34.70
2022-09-03T14:38:25.887Z,34.70
2022-09-03T14:41:30.879Z,34.80
2022-09-03T14:44:31.014Z,34.90
2022-09-03T14:47:06.373Z,34.90
2022-09-03T14:49:57.417Z,35.00
2022-09-03T14:52:38.894Z,35.00
2022-09-03T14:55:30.637Z,35.00
2022-09-03T14:58:18.470Z,34.90
2022-09-03T15:00:50.784Z,34.80
2022-09-03T15:03:34.503Z,34.80
2022-09-03T15:06:31.210Z,34.80
2022-09-03T15:09:34.143Z,34.80
2022-09-03T15:12:08.572Z,34.60
2022-09-03T15:14:36.230Z,34.60
2022-09-03T15:17:15.039Z,34.50
2022-09-03T15:20:11.115Z,34.60
2022-09-03T15:22:58.026Z,34.60
2022-09-03T15:26:04.738Z,34.70
2022-09-03T15:28:49.550Z,34.60
2022-09-03T15:31:42.273Z,34.60
2022-09-03T15:34:42.379Z,34.60
2022-09-03T15:37:26.134Z,34.60
2022-09-03T15:40:30.684Z,34.60
2022-09-03T15:43:07.028Z,34.70
2022-09-03T15:45:49.570Z,34.70
2022-09-03T15:48:16.777Z,34.70
2022-09-03T15:50:53.072Z,34.60
2022-09-03T15:53:53.123Z,34.50
2022-09-03T15:56:53.525Z,34.50
2022-09-03T15:59:26.639Z,34.50
2022-09-03T16:02:20.037Z,34.50
2022-09-03T16:05:07.892Z,34.40
2022-09-03T16:07:37.401Z,34.30
2022-09-03T16:10:30.778Z,34.10
2022-09-03T16:13:26.575Z,34.10
2022-09-03T16:16:02.018Z,34.10
2022-09-03T16:18:37.240Z,34.00
2022-09-03T16:21:23.411Z,33.90
2022-09-03T16:23:58.905Z,33.90
2022-09-03T16:26:41.277Z,33.80
2022-09-03T16:29:16.428Z,33.70
2022-09-03T16:31:52.247Z,33.60
2022-09-03T16:34:45.889Z,33.50
2022-09-03T16:37:34.743Z,33.40
2022-09-03T16:40:10.193Z,33.30
2022-09-03T16:43:23.794Z,33.10
2022-09-03T16:46:33.670Z,33.00
2022-09-03T16:49:10.825Z,32.90
2022-09-03T16:51:40.753Z,32.80
2022-09-03T16:54:32.318Z,32.70
2022-09-03T16:57:21.894Z,32.60
2022-09-03T17:00:11.587Z,32.50
2022-09-03T17:02:50.386Z,32.40
2022-09-03T17:06:00.718Z,32.30
2022-09-03T17:08:31.136Z,32.20
2022-09-03T17:11:15.563Z,32.10
2022-09-03T17:14:31.306Z,32.10
2022-09-03T17:17:25.404Z,32.00
2022-09-03T17:20:04.718Z,31.90
2022-09-03T17:23:00.320Z,31.80
2022-09-03T17:25:41.281Z,31.80
2022-09-03T17:28:31.549Z,31.60
2022-09-03T17:31:04.581Z,31.60
2022-09-03T17:33:59.978Z,31.40
2022-09-03T17:36:31.273Z,31.40
2022-09-03T17:39:36.140Z,31.30
2022-09-03T17:42:21.006Z,31.20
2022-09-03T17:44:53.975Z,31.10
2022-09-03T17:48:00.532Z,31.00
2022-09-03T17:50:55.400Z,31.00
2022-09-03T17:53:44.243Z,30.90
2022-09-03T17:56:29.476Z,30.80
2022-09-03T17:59:17.121Z,30.70
2022-09-03T18:01:59.129Z,30.70
2022-09-03T18:04:47.253Z,30.60
2022-09-03T18:07:32.278Z,30.60
2022-09-03T18:10:17.265Z,30.50
2022-09-03T18:13:23.770Z,30.40
2022-09-03T18:16:05.782Z,30.40
2022-09-03T18:18:37.123Z,30.30
2022-09-03T18:21:31.681Z,30.30
2022-09-03T18:24:21.896Z,30.20
2022-09-03T18:27:19.962Z,30.20
2022-09-03T18:30:24.045Z,30.20
2022-09-03T18:33:10.452Z,30.10
2022-09-03T18:35:57.112Z,30.10
2022-09-03T18:38:49.895Z,30.00
2022-09-03T18:41:41.823Z,30.00
2022-09-03T18:44:42.468Z,29.90
2022-09-03T18:48:02.073Z,29.90
2022-09-03T18:51:08.542Z,29.80
2022-09-03T18:54:12.976Z,29.70
2022-09-03T18:57:08.385Z,29.60
2022-09-03T19:00:05.927Z,29.60
2022-09-03T19:03:06.291Z,29.50
2022-09-03T19:06:32.819Z,29.50
2022-09-03T19:09:46.035Z,29.40
2022-09-03T19:12:59.646Z,29.20
2022-09-03T19:15:51.281Z,29.00
2022-09-03T19:19:19.849Z,28.90
2022-09-03T19:22:11.177Z,28.90
2022-09-03T19:24:56.635Z,28.90
2022-09-03T19:28:00.212Z,28.80
2022-09-03T19:31:01.677Z,28.80
2022-09-03T19:34:39.766Z,28.80
2022-09-03T19:37:34.274Z,28.70
2022-09-03T19:40:55.596Z,28.70
2022-09-03T19:43:47.075Z,28.60
2022-09-03T19:46:36.442Z,28.60
2022-09-03T19:49:38.132Z,28.50
2022-09-03T19:52:44.286Z,28.40
2022-09-03T19:55:33.983Z,28.40
2022-09-03T19:58:41.595Z,28.30
2022-09-03T20:01:27.191Z,28.20
2022-09-03T20:04:17.028Z,28.20
2022-09-03T20:07:04.608Z,28.20
2022-09-03T20:09:56.413Z,28.10
2022-09-03T20:12:25.955Z,28.00
2022-09-03T20:14:53.146Z,28.00
2022-09-03T20:17:29.194Z,28.00
2022-09-03T20:20:25.408Z,28.00
2022-09-03T20:23:09.625Z,27.90
2022-09-03T20:26:23.980Z,27.80
2022-09-03T20:29:14.733Z,27.80
2022-09-03T20:31:59.635Z,27.70
2022-09-03T20:34:38.213Z,27.70
2022-09-03T20:37:28.239Z,27.60
2022-09-03T20:40:01.221Z,27.50
2022-09-03T20:42:47.138Z,27.50
2022-09-03T20:45:24.824Z,27.40
2022-09-03T20:48:03.591Z,27.40
2022-09-03T20:50:56.624Z,27.30
2022-09-03T20:53:43.681Z,27.30
2022-09-03T20:56:36.167Z,27.20
2022-09-03T20:59:13.837Z,27.20
2022-09-03T21:02:05.449Z,27.10
2022-09-03T21:05:10.078Z,27.10
2022-09-03T21:08:13.787Z,27.10
2022-09-03T21:11:09.377Z,27.00
2022-09-03T21:14:05.614Z,26.90
2022-09-03T21:16:56.889Z,26.80
2022-09-03T21:19:58.815Z,26.80
2022-09-03T21:22:52.709Z,26.70
2022-09-03T21:25:39.940Z,26.70
2022-09-03T21:28:26.289Z,26.60
2022-09-03T21:31:02.943Z,26.50
2022-09-03T21:33:34.828Z,26.40
2022-09-03T21:36:25.841Z,26.30
2022-09-03T21:38:59.676Z,26.30
2022-09-03T21:41:34.504Z,26.30
2022-09-03T21:44:16.387Z,26.20
2022-09-03T21:47:01.854Z,26.10
2022-09-03T21:49:36.944Z,26.10
2022-09-03T21:52:11.495Z,26.10
2022-09-03T21:54:39.043Z,26.10
2022-09-03T21:57:08.896Z,26.00
2022-09-03T22:00:22.113Z,26.00
2022-09-03T22:02:49.899Z,25.90
2022-09-03T22:05:18.520Z,25.90
2022-09-03T22:08:04.756Z,25.90
2022-09-03T22:10:43.501Z,25.90
2022-09-03T22:13:21.337Z,25.80
2022-09-03T22:15:51.324Z,25.80
2022-09-03T22:18:30.994Z,25.80
2022-09-03T22:21:17.248Z,25.80
2022-09-03T22:23:58.313Z,25.70
2022-09-03T22:26:51.317Z,25.70
2022-09-03T22:29:46.499Z,25.60
2022-09-03T22:32:29.285Z,25.60
2022-09-03T22:35:10.780Z,25.60
2022-09-03T22:37:58.663Z,25.60
2022-09-03T22:40:59.082Z,25.50
2022-09-03T22:43:39.547Z,25.40
2022-09-03T22:46:15.571Z,25.40
2022-09-03T22:48:51.453Z,25.40
2022-09-03T22:51:21.786Z,25.30
2022-09-03T22:54:00.978Z,25.30
2022-09-03T22:56:33.479Z,25.30
2022-09-03T22:59:21.903Z,25.30
2022-09-03T23:02:02.635Z,25.30
2022-09-03T23:04:58.738Z,25.20
2022-09-03T23:07:34.976Z,25.20
2022-09-03T23:10:09.577Z,25.20
2022-09-03T23:12:48.084Z,25.20
2022-09-03T23:15:23.121Z,25.10
2022-09-03T23:18:17.581Z,25.10
2022-09-03T23:20:53.291Z,25.10
2022-09-03T23:23:31.059Z,25.00
2022-09-03T23:26:16.538Z,25.00
2022-09-03T23:28:49.144Z,24.90
2022-09-03T23:31:19.477Z,24.90
2022-09-03T23:33:47.949Z,24.90
2022-09-03T23:37:22.336Z,24.80
2022-09-03T23:40:04.028Z,24.80
2022-09-03T23:42:55.460Z,24.70
2022-09-03T23:45:31.683Z,24.60
2022-09-03T23:48:12.013Z,24.60
2022-09-03T23:51:01.571Z,24.50
2022-09-03T23:54:06.713Z,24.50
2022-09-03T23:57:06.568Z,24.40
